createdAt,value
2022-09-27T00:00:07.899Z,71.43
2022-09-27T00:02:34.707Z,71.48
2022-09-27T00:05:01.622Z,71.45
2022-09-27T00:07:28.403Z,71.32
2022-09-27T00:09:55.097Z,71.46
2022-09-27T00:12:21.791Z,71.62
2022-09-27T00:14:48.477Z,71.52
2022-09-27T00:17:15.214Z,71.52
2022-09-27T00:19:41.989Z,71.51
2022-09-27T00:22:08.697Z,71.41
2022-09-27T00:24:35.396Z,71.71
2022-09-27T00:27:02.095Z,71.61
2022-09-27T00:29:28.848Z,71.48
2022-09-27T00:31:55.575Z,71.72
2022-09-27T00:34:24.379Z,71.73
2022-09-27T00:36:52.048Z,71.64
2022-09-27T00:39:18.808Z,71.51
2022-09-27T00:41:45.581Z,71.65
2022-09-27T00:44:33.757Z,71.77
2022-09-27T00:47:03.780Z,71.79
2022-09-27T00:49:34.182Z,71.70
2022-09-27T00:52:04.624Z,71.67
2022-09-27T00:54:31.789Z,71.88
2022-09-27T00:56:59.004Z,71.76
2022-09-27T00:59:30.906Z,71.75
2022-09-27T01:01:57.863Z,71.99
2022-09-27T01:04:27.136Z,71.75
2022-09-27T01:06:54.654Z,71.86
2022-09-27T01:09:21.649Z,71.82
2022-09-27T01:11:55.101Z,71.89
2022-09-27T01:14:38.026Z,71.83
2022-09-27T01:17:13.721Z,71.98
2022-09-27T01:20:08.753Z,71.77
2022-09-27T01:22:45.591Z,71.99
2022-09-27T01:25:12.172Z,71.82
2022-09-27T01:28:06.109Z,71.98
2022-09-27T01:30:53.775Z,72.00
2022-09-27T01:33:30.589Z,72.06
2022-09-27T01:36:05.967Z,72.20
2022-09-27T01:38:56.684Z,72.06
2022-09-27T01:41:42.142Z,72.11
2022-09-27T01:44:27.493Z,71.93
2022-09-27T01:46:56.268Z,71.99
2022-09-27T01:49:28.973Z,72.03
2022-09-27T01:51:59.569Z,72.41
2022-09-27T01:54:32.878Z,72.11
2022-09-27T01:57:00.477Z,71.96
2022-09-27T01:59:36.694Z,72.03
2022-09-27T02:02:08.683Z,71.99
2022-09-27T02:04:38.491Z,72.07
2022-09-27T02:07:18.282Z,72.07
2022-09-27T02:09:49.510Z,72.08
2022-09-27T02:12:20.026Z,72.24
2022-09-27T02:14:50.841Z,72.17
2022-09-27T02:17:31.069Z,72.10
2022-09-27T02:20:12.934Z,72.26
2022-09-27T02:22:47.612Z,72.12
2022-09-27T02:25:21.765Z,72.26
2022-09-27T02:27:58.491Z,72.22
2022-09-27T02:30:25.235Z,72.29
2022-09-27T02:32:52.254Z,72.17
2022-09-27T02:35:23.569Z,72.08
2022-09-27T02:37:50.437Z,71.94
2022-09-27T02:40:17.535Z,72.11
2022-09-27T02:42:44.756Z,72.26
2022-09-27T02:45:12.987Z,72.16
2022-09-27T02:47:58.447Z,72.16
2022-09-27T02:50:41.812Z,72.17
2022-09-27T02:53:36.589Z,72.17
2022-09-27T02:56:18.482Z,72.34
2022-09-27T02:58:54.753Z,72.20
2022-09-27T03:02:00.322Z,72.03
2022-09-27T03:04:32.215Z,72.04
2022-09-27T03:07:00.071Z,72.33
2022-09-27T03:09:29.974Z,72.24
2022-09-27T03:11:56.708Z,72.28
2022-09-27T03:14:23.443Z,72.09
2022-09-27T03:16:50.311Z,72.21
2022-09-27T03:19:17.233Z,72.42
2022-09-27T03:21:44.037Z,72.14
2022-09-27T03:24:10.752Z,72.35
2022-09-27T03:26:37.456Z,72.17
2022-09-27T03:29:04.248Z,71.94
2022-09-27T03:31:31.104Z,72.12
2022-09-27T03:33:57.865Z,71.99
2022-09-27T03:36:24.604Z,72.10
2022-09-27T03:38:51.342Z,72.05
2022-09-27T03:41:18.059Z,72.14
2022-09-27T03:43:44.772Z,72.01
2022-09-27T03:46:11.601Z,72.19
2022-09-27T03:48:38.412Z,72.05
2022-09-27T03:51:05.154Z,72.12
2022-09-27T03:53:31.902Z,72.18
2022-09-27T03:55:58.999Z,72.03
2022-09-27T03:58:25.703Z,72.14
2022-09-27T04:00:52.388Z,72.18
2022-09-27T04:03:19.825Z,72.07
2022-09-27T04:05:46.676Z,72.29
2022-09-27T04:08:13.615Z,72.21
2022-09-27T04:10:42.150Z,72.16
2022-09-27T04:13:08.864Z,72.16
2022-09-27T04:15:35.557Z,72.20
2022-09-27T04:18:02.278Z,72.18
2022-09-27T04:20:28.976Z,72.12
2022-09-27T04:22:55.651Z,72.21
2022-09-27T04:25:22.408Z,72.23
2022-09-27T04:27:51.939Z,72.29
2022-09-27T04:30:19.081Z,72.07
2022-09-27T04:32:45.854Z,72.07
2022-09-27T04:35:31.592Z,72.07
2022-09-27T04:37:58.923Z,72.22
2022-09-27T04:40:25.742Z,72.07
2022-09-27T04:42:52.512Z,72.13
2022-09-27T04:45:19.880Z,72.31
2022-09-27T04:47:48.226Z,72.16
2022-09-27T04:50:17.317Z,72.04
2022-09-27T04:52:44.380Z,72.15
2022-09-27T04:55:11.310Z,72.00
2022-09-27T04:57:38.001Z,72.06
2022-09-27T05:00:05.652Z,72.00
2022-09-27T05:02:32.410Z,72.18
2022-09-27T05:04:59.920Z,72.38
2022-09-27T05:07:27.493Z,72.21
2022-09-27T05:09:54.243Z,72.19
2022-09-27T05:12:21.418Z,72.25
2022-09-27T05:14:48.117Z,72.24
2022-09-27T05:17:15.083Z,72.33
2022-09-27T05:19:45.364Z,72.28
2022-09-27T05:22:12.141Z,72.32
2022-09-27T05:24:39.201Z,72.29
2022-09-27T05:27:08.147Z,72.31
2022-09-27T05:29:35.391Z,72.17
2022-09-27T05:32:02.463Z,72.42
2022-09-27T05:34:29.242Z,72.27
2022-09-27T05:36:56.129Z,72.22
2022-09-27T05:39:22.822Z,72.25
2022-09-27T05:44:17.832Z,72.01
2022-09-27T05:46:46.228Z,72.15
2022-09-27T05:49:12.968Z,72.16
2022-09-27T05:51:39.668Z,72.44
2022-09-27T05:54:06.353Z,72.33
2022-09-27T05:56:33.079Z,72.34
2022-09-27T05:58:59.913Z,72.42
2022-09-27T06:01:27.762Z,72.60
2022-09-27T06:03:55.139Z,72.42
2022-09-27T06:06:23.560Z,72.58
2022-09-27T06:08:50.325Z,72.68
2022-09-27T06:11:17.055Z,73.06
2022-09-27T06:13:43.745Z,72.88
2022-09-27T06:16:11.172Z,72.70
2022-09-27T06:18:37.885Z,72.76
2022-09-27T06:21:05.721Z,72.75
2022-09-27T06:23:35.664Z,72.80
2022-09-27T06:26:04.807Z,72.73
2022-09-27T06:28:32.251Z,72.49
2022-09-27T06:31:01.121Z,72.66
2022-09-27T06:33:30.732Z,72.55
2022-09-27T06:35:57.443Z,72.73
2022-09-27T06:38:26.579Z,72.72
2022-09-27T06:40:53.594Z,72.70
2022-09-27T06:43:21.122Z,72.66
2022-09-27T06:45:48.011Z,72.76
2022-09-27T06:48:17.045Z,72.63
2022-09-27T06:50:45.660Z,72.59
2022-09-27T06:53:14.346Z,72.55
2022-09-27T06:55:41.248Z,72.74
2022-09-27T06:58:28.074Z,72.71
2022-09-27T07:00:55.214Z,72.78
2022-09-27T07:03:23.154Z,72.64
2022-09-27T07:06:00.620Z,72.63
2022-09-27T07:08:28.844Z,72.60
2022-09-27T07:11:00.869Z,72.45
2022-09-27T07:13:29.643Z,72.66
2022-09-27T07:15:56.343Z,72.83
2022-09-27T07:18:23.231Z,73.01
2022-09-27T07:20:50.800Z,72.68
2022-09-27T07:23:17.529Z,72.72
2022-09-27T07:25:44.280Z,72.77
2022-09-27T07:28:21.007Z,72.65
2022-09-27T07:30:48.750Z,72.73
2022-09-27T07:33:15.763Z,72.49
2022-09-27T07:35:43.671Z,72.62
2022-09-27T07:38:13.293Z,72.65
2022-09-27T07:40:40.912Z,72.66
2022-09-27T07:43:10.574Z,72.52
2022-09-27T07:45:37.519Z,72.65
2022-09-27T07:48:08.681Z,72.59
2022-09-27T07:50:35.430Z,72.54
2022-09-27T07:53:02.175Z,72.87
2022-09-27T07:55:28.951Z,72.85
2022-09-27T07:58:11.728Z,73.13
2022-09-27T08:00:40.677Z,72.96
2022-09-27T08:03:10.182Z,72.93
2022-09-27T08:05:37.877Z,72.84
2022-09-27T08:08:05.003Z,73.01
2022-09-27T08:10:32.895Z,72.71
2022-09-27T08:13:03.380Z,72.66
2022-09-27T08:15:35.933Z,72.70
2022-09-27T08:18:02.660Z,72.39
2022-09-27T08:20:29.559Z,72.54
2022-09-27T08:22:56.639Z,72.65
2022-09-27T08:25:24.600Z,72.61
2022-09-27T08:27:58.658Z,72.50
2022-09-27T08:30:25.907Z,72.63
2022-09-27T08:33:04.317Z,72.71
2022-09-27T08:35:33.636Z,72.62
2022-09-27T08:38:01.613Z,72.61
2022-09-27T08:40:35.788Z,72.71
2022-09-27T08:43:13.113Z,72.64
2022-09-27T08:45:55.916Z,72.69
2022-09-27T08:48:26.718Z,72.54
2022-09-27T08:50:56.365Z,72.33
2022-09-27T08:53:23.022Z,72.45
2022-09-27T08:55:52.183Z,72.35
2022-09-27T08:58:32.587Z,72.35
2022-09-27T09:01:04.325Z,72.53
2022-09-27T09:03:33.507Z,72.52
2022-09-27T09:06:12.493Z,72.66
2022-09-27T09:08:50.697Z,72.73
2022-09-27T09:11:46.419Z,73.01
2022-09-27T09:14:45.222Z,73.00
2022-09-27T09:17:33.464Z,72.95
2022-09-27T09:20:22.286Z,72.60
2022-09-27T09:23:22.978Z,72.61
2022-09-27T09:26:13.894Z,72.68
2022-09-27T09:28:54.421Z,73.35
2022-09-27T09:31:59.613Z,73.69
2022-09-27T09:34:29.197Z,73.85
2022-09-27T09:37:09.861Z,73.62
2022-09-27T09:39:42.910Z,73.55
2022-09-27T09:42:30.004Z,73.53
2022-09-27T09:44:56.609Z,73.41
2022-09-27T09:47:39.505Z,73.58
2022-09-27T09:50:35.805Z,73.44
2022-09-27T09:53:21.191Z,73.43
2022-09-27T09:55:52.556Z,73.68
2022-09-27T09:58:33.407Z,73.86
2022-09-27T10:01:12.099Z,73.48
2022-09-27T10:03:38.873Z,72.93
2022-09-27T10:06:06.281Z,72.83
2022-09-27T10:08:33.152Z,72.87
2022-09-27T10:11:00.548Z,72.45
2022-09-27T10:13:28.313Z,72.58
2022-09-27T10:16:10.674Z,72.67
2022-09-27T10:18:38.909Z,72.37
2022-09-27T10:21:14.808Z,72.76
2022-09-27T10:24:05.025Z,73.12
2022-09-27T10:26:32.786Z,73.26
2022-09-27T10:29:15.141Z,73.00
2022-09-27T10:31:46.062Z,73.21
2022-09-27T10:34:31.858Z,73.18
2022-09-27T10:37:12.792Z,73.36
2022-09-27T10:39:41.375Z,73.52
2022-09-27T10:45:30.005Z,72.57
2022-09-27T10:47:58.201Z,72.77
2022-09-27T10:50:53.022Z,72.72
2022-09-27T10:53:27.301Z,72.80
2022-09-27T10:55:54.097Z,72.82
2022-09-27T10:58:27.095Z,72.74
2022-09-27T11:01:01.151Z,72.35
2022-09-27T11:03:29.733Z,71.95
2022-09-27T11:05:59.198Z,71.86
2022-09-27T11:08:31.913Z,71.69
2022-09-27T11:11:02.412Z,72.06
2022-09-27T11:13:32.693Z,72.25
2022-09-27T11:16:10.175Z,72.15
2022-09-27T11:19:04.463Z,72.25
2022-09-27T11:21:52.387Z,72.16
2022-09-27T11:24:38.253Z,72.68
2022-09-27T11:27:28.794Z,72.76
2022-09-27T11:30:25.068Z,72.89
2022-09-27T11:33:16.738Z,72.87
2022-09-27T11:35:57.041Z,72.92
2022-09-27T11:38:53.953Z,71.95
2022-09-27T11:41:33.222Z,71.91
2022-09-27T11:44:26.369Z,71.78
2022-09-27T11:47:05.337Z,72.12
2022-09-27T11:49:46.245Z,72.56
2022-09-27T11:52:15.803Z,72.46
2022-09-27T11:57:52.483Z,72.88
2022-09-27T12:00:24.506Z,72.53
2022-09-27T12:03:06.577Z,71.96
2022-09-27T12:06:10.946Z,71.90
2022-09-27T12:08:44.188Z,71.29
2022-09-27T12:11:44.778Z,70.97
2022-09-27T12:14:37.303Z,70.51
2022-09-27T12:17:07.482Z,70.10
2022-09-27T12:19:38.427Z,69.71
2022-09-27T12:22:08.591Z,69.75
2022-09-27T12:24:35.663Z,69.88
2022-09-27T12:27:09.774Z,69.64
2022-09-27T12:29:39.581Z,69.64
2022-09-27T12:32:18.012Z,69.71
2022-09-27T12:35:15.739Z,69.69
2022-09-27T12:37:45.790Z,70.06
2022-09-27T12:40:22.242Z,70.01
2022-09-27T12:42:59.186Z,70.20
2022-09-27T12:45:46.416Z,70.63
2022-09-27T12:48:24.566Z,70.85
2022-09-27T12:50:55.663Z,70.93
2022-09-27T12:53:26.503Z,70.97
2022-09-27T12:56:10.676Z,71.06
2022-09-27T12:59:05.270Z,70.85
2022-09-27T13:01:58.362Z,70.80
2022-09-27T13:05:04.220Z,71.15
2022-09-27T13:08:15.205Z,70.90
2022-09-27T13:10:58.440Z,70.98
2022-09-27T13:13:26.443Z,70.54
2022-09-27T13:15:57.834Z,70.79
2022-09-27T13:18:36.702Z,70.52
2022-09-27T13:21:07.848Z,70.60
2022-09-27T13:23:35.706Z,70.46
2022-09-27T13:26:22.213Z,70.56
2022-09-27T13:28:51.870Z,70.69
2022-09-27T13:31:53.442Z,70.80
2022-09-27T13:34:40.061Z,70.86
2022-09-27T13:37:28.669Z,71.16
2022-09-27T13:40:25.760Z,71.24
2022-09-27T13:43:23.604Z,71.55
2022-09-27T13:45:57.005Z,71.40
2022-09-27T13:48:31.674Z,71.61
2022-09-27T13:51:03.232Z,71.44
2022-09-27T13:53:40.633Z,71.35
2022-09-27T13:56:48.110Z,71.57
2022-09-27T13:59:17.486Z,71.50
2022-09-27T14:01:55.175Z,71.72
2022-09-27T14:04:29.607Z,71.94
2022-09-27T14:06:59.997Z,71.77
2022-09-27T14:09:35.961Z,71.69
2022-09-27T14:12:07.801Z,71.72
2022-09-27T14:14:35.721Z,71.54
2022-09-27T14:17:06.499Z,71.46
2022-09-27T14:19:39.966Z,71.42
2022-09-27T14:22:12.858Z,71.16
2022-09-27T14:24:39.560Z,71.12
2022-09-27T14:27:17.293Z,71.17
2022-09-27T14:29:50.013Z,71.16
2022-09-27T14:32:25.533Z,71.15
2022-09-27T14:35:32.227Z,71.23
2022-09-27T14:38:07.525Z,71.45
2022-09-27T14:40:44.407Z,71.14
2022-09-27T14:43:16.689Z,70.83
2022-09-27T14:45:43.449Z,70.89
2022-09-27T14:48:27.885Z,70.87
2022-09-27T14:51:19.230Z,70.79
2022-09-27T14:53:49.285Z,70.88
2022-09-27T14:56:19.258Z,70.73
2022-09-27T14:58:48.214Z,70.48
2022-09-27T15:01:20.267Z,70.45
2022-09-27T15:03:52.675Z,70.72
2022-09-27T15:06:20.093Z,70.36
2022-09-27T15:08:49.432Z,70.42
2022-09-27T15:11:17.942Z,70.38
2022-09-27T15:13:45.965Z,70.03
2022-09-27T15:16:18.169Z,69.89
2022-09-27T15:18:50.447Z,69.97
2022-09-27T15:21:33.677Z,69.77
2022-09-27T15:24:01.784Z,69.78
2022-09-27T15:26:40.421Z,69.75
2022-09-27T15:29:15.922Z,69.60
2022-09-27T15:31:42.753Z,69.81
2022-09-27T15:34:18.040Z,69.51
2022-09-27T15:36:47.599Z,69.53
2022-09-27T15:39:17.948Z,69.62
2022-09-27T15:42:07.922Z,69.49
2022-09-27T15:44:39.741Z,69.66
2022-09-27T15:47:32.172Z,69.57
2022-09-27T15:49:59.309Z,69.56
2022-09-27T15:52:58.471Z,69.79
2022-09-27T15:55:26.631Z,69.86
2022-09-27T15:57:58.331Z,69.95
2022-09-27T16:00:26.477Z,69.73
2022-09-27T16:02:53.871Z,69.80
2022-09-27T16:05:23.250Z,69.84
2022-09-27T16:07:50.744Z,70.15
2022-09-27T16:10:23.484Z,70.10
2022-09-27T16:12:50.914Z,69.96
2022-09-27T16:15:18.063Z,69.95
2022-09-27T16:17:44.831Z,69.81
2022-09-27T16:20:19.446Z,69.84
2022-09-27T16:22:46.145Z,69.87
2022-09-27T16:25:12.840Z,69.93
2022-09-27T16:27:39.835Z,69.94
2022-09-27T16:30:07.942Z,69.68
2022-09-27T16:32:35.875Z,69.67
2022-09-27T16:35:03.163Z,69.77
2022-09-27T16:37:30.389Z,69.96
2022-09-27T16:39:57.101Z,69.81
2022-09-27T16:42:23.789Z,69.77
2022-09-27T16:44:50.622Z,69.83
2022-09-27T16:47:17.318Z,69.88
2022-09-27T16:50:02.798Z,69.84
2022-09-27T16:52:31.411Z,69.85
2022-09-27T16:54:58.174Z,69.88
2022-09-27T16:57:28.430Z,69.58
2022-09-27T16:59:58.050Z,69.81
2022-09-27T17:02:24.809Z,70.02
2022-09-27T17:04:51.922Z,69.89
2022-09-27T17:07:18.995Z,70.19
2022-09-27T17:09:45.791Z,69.92
2022-09-27T17:12:13.327Z,70.02
2022-09-27T17:14:40.070Z,70.06
2022-09-27T17:17:07.388Z,69.99
2022-09-27T17:19:34.258Z,69.90
2022-09-27T17:22:01.730Z,70.06
2022-09-27T17:24:28.441Z,70.26
2022-09-27T17:26:55.353Z,70.02
2022-09-27T17:29:22.072Z,69.99
2022-09-27T17:31:48.821Z,70.24
2022-09-27T17:34:15.608Z,70.12
2022-09-27T17:36:47.944Z,70.12
2022-09-27T17:39:16.530Z,70.10
2022-09-27T17:41:43.707Z,70.07
2022-09-27T17:44:15.071Z,69.73
2022-09-27T17:46:42.143Z,70.16
2022-09-27T17:49:28.554Z,70.12
2022-09-27T17:51:55.292Z,70.18
2022-09-27T17:54:23.942Z,70.00
2022-09-27T17:56:50.850Z,70.33
2022-09-27T17:59:18.199Z,70.29
2022-09-27T18:01:46.235Z,70.38
2022-09-27T18:04:15.254Z,70.37
2022-09-27T18:06:44.011Z,70.27
2022-09-27T18:09:11.997Z,70.35
2022-09-27T18:11:39.129Z,70.28
2022-09-27T18:14:06.185Z,70.45
2022-09-27T18:16:38.753Z,70.48
2022-09-27T18:19:07.134Z,70.40
2022-09-27T18:21:34.601Z,70.40
2022-09-27T18:24:06.450Z,70.52
2022-09-27T18:26:36.475Z,70.44
2022-09-27T18:29:05.785Z,70.68
2022-09-27T18:31:32.623Z,70.45
2022-09-27T18:33:59.577Z,70.55
2022-09-27T18:36:27.318Z,70.40
2022-09-27T18:38:59.405Z,70.43
2022-09-27T18:41:27.823Z,70.55
2022-09-27T18:43:57.781Z,70.38
2022-09-27T18:46:41.806Z,70.49
2022-09-27T18:49:10.750Z,70.35
2022-09-27T18:51:41.810Z,70.36
2022-09-27T18:54:13.542Z,70.32
2022-09-27T18:56:41.048Z,70.28
2022-09-27T18:59:08.917Z,70.08
2022-09-27T19:01:39.495Z,69.99
2022-09-27T19:04:07.567Z,70.23
2022-09-27T19:06:34.937Z,69.96
2022-09-27T19:09:03.489Z,69.99
2022-09-27T19:11:30.564Z,69.88
2022-09-27T19:13:58.538Z,69.85
2022-09-27T19:16:27.176Z,69.90
2022-09-27T19:18:54.363Z,69.79
2022-09-27T19:21:26.175Z,69.73
2022-09-27T19:23:53.331Z,70.07
2022-09-27T19:26:22.693Z,70.11
2022-09-27T19:28:49.789Z,70.30
2022-09-27T19:31:18.762Z,70.12
2022-09-27T19:33:45.523Z,70.23
2022-09-27T19:36:14.101Z,70.05
2022-09-27T19:38:40.826Z,70.04
2022-09-27T19:41:10.521Z,70.19
2022-09-27T19:43:37.456Z,70.18
2022-09-27T19:46:12.594Z,70.16
2022-09-27T19:48:39.373Z,70.20
2022-09-27T19:51:06.840Z,70.25
2022-09-27T19:53:34.546Z,70.22
2022-09-27T19:56:02.548Z,70.34
2022-09-27T19:58:30.551Z,70.47
2022-09-27T20:01:01.681Z,70.42
2022-09-27T20:03:28.862Z,70.37
2022-09-27T20:05:56.887Z,70.25
2022-09-27T20:08:23.908Z,70.36
2022-09-27T20:10:55.072Z,70.26
2022-09-27T20:13:23.658Z,70.47
2022-09-27T20:15:50.805Z,70.28
2022-09-27T20:18:17.578Z,70.26
2022-09-27T20:20:44.337Z,70.41
2022-09-27T20:23:11.078Z,70.35
2022-09-27T20:25:42.182Z,70.24
2022-09-27T20:28:09.709Z,70.45
2022-09-27T20:30:36.403Z,70.40
2022-09-27T20:33:21.682Z,70.48
2022-09-27T20:35:52.365Z,70.42
2022-09-27T20:38:19.396Z,70.38
2022-09-27T20:40:55.713Z,70.61
2022-09-27T20:43:22.502Z,70.52
2022-09-27T20:45:49.172Z,70.57
2022-09-27T20:48:15.865Z,70.66
2022-09-27T20:50:42.566Z,70.51
2022-09-27T20:53:09.949Z,70.53
2022-09-27T20:55:36.708Z,70.68
2022-09-27T20:58:03.420Z,70.62
2022-09-27T21:00:30.184Z,70.57
2022-09-27T21:02:57.865Z,70.86
2022-09-27T21:05:24.597Z,70.76
2022-09-27T21:07:53.097Z,70.88
2022-09-27T21:10:19.809Z,70.77
2022-09-27T21:12:46.537Z,70.85
2022-09-27T21:15:13.282Z,70.77
2022-09-27T21:17:39.960Z,70.90
2022-09-27T21:20:06.843Z,71.25
2022-09-27T21:22:34.603Z,70.95
2022-09-27T21:25:01.281Z,71.05
2022-09-27T21:27:27.953Z,71.10
2022-09-27T21:29:54.677Z,70.83
2022-09-27T21:32:21.376Z,70.67
2022-09-27T21:34:48.054Z,70.84
2022-09-27T21:37:14.761Z,70.87
2022-09-27T21:39:41.437Z,70.81
2022-09-27T21:42:08.112Z,70.99
2022-09-27T21:44:34.830Z,70.85
2022-09-27T21:47:01.727Z,71.11
2022-09-27T21:49:29.914Z,71.01
2022-09-27T21:51:56.638Z,71.10
2022-09-27T21:54:23.374Z,70.96
2022-09-27T21:56:50.067Z,70.88
2022-09-27T21:59:18.239Z,71.09
2022-09-27T22:01:45.997Z,71.30
2022-09-27T22:04:13.153Z,71.43
2022-09-27T22:06:40.253Z,71.24
2022-09-27T22:09:10.995Z,71.12
2022-09-27T22:11:39.664Z,71.33
2022-09-27T22:14:06.819Z,71.36
2022-09-27T22:16:33.743Z,71.42
2022-09-27T22:19:00.484Z,71.59
2022-09-27T22:21:29.591Z,71.39
2022-09-27T22:23:58.128Z,71.59
2022-09-27T22:26:28.048Z,71.50
2022-09-27T22:28:55.158Z,71.28
2022-09-27T22:31:23.137Z,71.19
2022-09-27T22:33:54.519Z,71.44
2022-09-27T22:36:21.917Z,71.19
2022-09-27T22:38:50.164Z,71.06
2022-09-27T22:41:16.851Z,71.02
2022-09-27T22:43:43.661Z,71.11
2022-09-27T22:46:10.670Z,70.84
2022-09-27T22:48:37.436Z,70.83
2022-09-27T22:51:04.995Z,70.92
2022-09-27T22:53:32.029Z,70.97
2022-09-27T22:56:04.795Z,71.01
2022-09-27T22:58:32.056Z,70.88
2022-09-27T23:00:58.962Z,70.97
2022-09-27T23:03:25.843Z,70.90
2022-09-27T23:05:52.593Z,71.22
2022-09-27T23:08:19.369Z,71.06
2022-09-27T23:10:46.103Z,70.93
2022-09-27T23:13:12.798Z,70.80
2022-09-27T23:15:40.043Z,70.90
2022-09-27T23:18:06.766Z,71.07
2022-09-27T23:20:34.451Z,70.76
2022-09-27T23:23:01.636Z,70.79
2022-09-27T23:25:28.422Z,70.70
2022-09-27T23:27:55.134Z,70.86
2022-09-27T23:30:22.527Z,70.72
2022-09-27T23:32:53.282Z,70.55
2022-09-27T23:35:20.005Z,70.34
2022-09-27T23:37:46.773Z,70.78
2022-09-27T23:40:13.485Z,70.72
2022-09-27T23:42:40.196Z,70.83
2022-09-27T23:45:07.325Z,70.94
2022-09-27T23:47:34.027Z,70.72
2022-09-27T23:50:00.746Z,70.68
2022-09-27T23:52:27.453Z,70.70
2022-09-27T23:54:54.145Z,70.86
2022-09-27T23:57:20.862Z,70.79
2022-09-27T23:59:47.586Z,70.73
